CST,Max TemperatureF,Mean TemperatureF,Min TemperatureF,Max Dew PointF,MeanDew PointF,Min DewpointF,Max Humidity, Mean Humidity, Min Humidity, Max Sea Level PressureIn, Mean Sea Level PressureIn, Min Sea Level PressureIn, Max VisibilityMiles, Mean VisibilityMiles, Min VisibilityMiles, Max Wind SpeedMPH, Mean Wind SpeedMPH, Max Gust SpeedMPH,PrecipitationIn, CloudCover, Events, WindDirDegrees
2012-12-1,51,42,32,52,42,32,100,96,81,30.01,29.83,29.72,5,2,0,22,13,28,0.00,7,Fog,192
2012-12-2,59,42,24,45,37,25,100,84,48,30.00,29.90,29.81,10,5,0,20,7,25,0.00,1,Fog,177
2012-12-3,59,47,35,55,42,25,100,79,51,30.01,29.76,29.59,10,6,0,24,17,33,0.00,4,Fog,248
2012-12-4,44,34,23,27,22,14,75,61,46,30.36,30.19,30.01,10,10,10,13,10,20,0.00,0,,330
2012-12-5,46,34,21,32,22,12,74,61,49,30.36,30.13,29.88,10,10,8,30,14,38,0.00,1,,143
2012-12-6,46,40,35,39,34,28,93,74,57,30.00,29.90,29.82,10,10,6,31,16,37,0.04,5,Rain,312
2012-12-7,35,30,26,28,25,23,93,79,70,30.00,29.97,29.93,10,10,4,16,10,16,0.00,7,Snow,31
2012-12-8,33,30,26,32,28,27,100,88,75,30.03,29.96,29.90,10,8,1,15,8,21,0.00,7,Rain-Snow,101
2012-12-9,33,24,14,34,26,9,100,92,79,29.93,29.84,29.78,10,6,1,29,15,39,0.01,8,Rain-Snow,220
2012-12-10,23,14,5,12,6,-2,85,69,50,29.98,29.91,29.82,10,10,9,23,14,33,0.00,4,Snow,287
2012-12-11,35,25,15,27,20,10,93,76,60,29.95,29.88,29.80,10,10,10,22,10,28,0.00,5,,233
2012-12-12,51,37,23,21,19,16,80,54,26,29.95,29.91,29.85,10,10,9,37,18,45,0.00,0,,187
2012-12-13,44,32,19,23,19,16,93,59,39,30.09,29.98,29.90,10,9,5,20,13,22,0.00,0,,240
2012-12-14,51,34,17,32,24,14,93,67,40,30.09,29.92,29.68,10,8,5,22,9,26,0.00,2,Snow,122
2012-12-15,44,38,32,43,39,30,100,95,61,29.67,29.54,29.45,10,4,0,20,13,26,0.52,8,Fog-Rain,170
2012-12-16,32,26,19,30,21,16,100,90,80,29.80,29.73,29.62,10,8,2,17,13,21,0.00,8,,336
2012-12-17,28,24,21,28,23,19,100,95,93,29.77,29.71,29.65,9,4,0,10,6,14,0.00,8,Fog-Snow,83
2012-12-18,33,30,28,32,29,28,100,95,87,29.85,29.65,29.50,8,3,1,15,8,18,0.00,8,Rain-Snow,90
2012-12-19,35,30,24,32,29,25,100,97,87,29.97,29.90,29.83,8,3,0,22,7,31,0.00,6,Rain-Snow,91
2012-12-20,24,17,8,23,15,5,100,88,79,30.07,29.88,29.77,10,3,0,33,24,46,0.00,7,Rain-Snow,340
2012-12-21,19,12,6,12,7,1,92,80,73,30.27,30.20,30.07,10,10,10,18,11,28,0.00,0,Snow,316
2012-12-22,28,20,12,21,13,7,93,79,68,30.16,30.00,29.91,10,10,7,15,11,18,0.00,0,Snow,202
2012-12-23,17,14,10,16,12,7,93,89,85,30.04,30.00,29.95,10,7,1,18,10,21,0.00,7,Rain-Snow,28
2012-12-24,17,8,0,14,6,-6,93,82,72,30.26,30.05,29.93,10,7,1,21,11,26,0.00,6,Rain-Snow,339
2012-12-25,8,2,-4,3,-4,-9,85,78,71,30.44,30.36,30.27,10,10,9,16,11,21,0.00,3,,358
2012-12-26,14,7,0,9,1,-6,85,78,72,30.33,30.24,30.16,10,10,10,13,9,13,0.00,3,,17
2012-12-27,21,14,6,19,12,3,93,85,73,30.19,30.11,30.03,10,8,0,15,5,16,0.00,7,Snow,88
2012-12-28,21,16,10,19,17,7,93,91,85,30.03,29.99,29.94,10,6,2,14,9,16,0.00,8,Rain-Snow,18
2012-12-29,15,9,3,12,7,-2,93,86,78,30.16,30.10,30.01,10,6,0,14,10,18,0.00,6,Fog-Snow,274
2012-12-30,30,15,0,23,15,-4,93,83,64,30.17,30.00,29.90,10,8,0,20,12,25,0.00,0,Snow,198
2012-12-31,17,6,-5,14,4,-11,86,77,62,30.23,30.14,30.00,10,10,10,21,11,24,0.00,1,Snow,342